Time;durP1;ratioP1;P1;durP2;ratioP2;P2;SDS_P1;SDS_P2;PMS_P1;PMS_P2;Temp;Humidity;BMP_temperature;BMP_pressure;BME280_temperature;BME280_humidity;BME280_pressure;Samples;Min_cycle;Max_cycle;Signal;HPM_P1;HPM_P2
2022/01/14 00:01:03;;;;;;;15.18;7.47;;;7.00;49.40;;;;;;4974669;28;20468;-67
2022/01/14 00:03:29;;;;;;;16.33;7.45;;;6.90;49.80;;;;;;4976256;28;20054;-67
2022/01/14 00:05:54;;;;;;;13.32;6.80;;;6.90;49.90;;;;;;4976313;28;20492;-67
2022/01/14 00:08:20;;;;;;;13.48;7.25;;;6.90;49.80;;;;;;4975994;28;20073;-67
2022/01/14 00:10:49;;;;;;;12.77;7.57;;;6.90;50.10;;;;;;4975335;28;20046;-66
2022/01/14 00:13:40;;;;;;;15.18;7.32;;;6.90;49.90;;;;;;4975438;28;20019;-67
2022/01/14 00:16:02;;;;;;;14.40;7.63;;;6.90;50.20;;;;;;4974993;28;20062;-68
2022/01/14 00:18:28;;;;;;;15.88;7.50;;;6.80;50.20;;;;;;4975354;28;20027;-68
2022/01/14 00:20:54;;;;;;;16.58;7.70;;;6.80;50.00;;;;;;4975187;28;20089;-66
2022/01/14 00:23:26;;;;;;;12.02;6.95;;;6.70;49.90;;;;;;4975014;28;20027;-67
2022/01/14 00:34:05;;;;;;;13.45;6.50;;;6.70;52.20;;;;;;4974784;28;19952;-71
2022/01/14 00:36:30;;;;;;;14.25;6.53;;;6.70;51.00;;;;;;4974690;28;20023;-68
2022/01/14 00:38:56;;;;;;;12.90;6.75;;;6.60;50.90;;;;;;4974492;28;20534;-70
2022/01/14 00:41:22;;;;;;;11.27;6.82;;;6.60;51.60;;;;;;4974538;28;20106;-70
2022/01/14 00:43:50;;;;;;;18.33;7.28;;;6.60;50.90;;;;;;4974565;28;20037;-73
2022/01/14 00:46:16;;;;;;;14.55;7.13;;;6.60;51.00;;;;;;4974599;28;20023;-71
2022/01/14 00:48:41;;;;;;;16.00;7.07;;;6.60;51.20;;;;;;4974309;28;20053;-72
2022/01/14 00:51:07;;;;;;;13.27;6.93;;;6.60;50.90;;;;;;4974031;28;20042;-73
2022/01/14 00:53:33;;;;;;;12.43;7.22;;;6.60;51.30;;;;;;4974147;28;20081;-70
2022/01/14 00:56:07;;;;;;;15.05;7.82;;;6.50;51.40;;;;;;4974411;28;20488;-72
2022/01/14 01:01:17;;;;;;;16.00;7.43;;;6.50;52.00;;;;;;4974374;28;20542;-69
2022/01/14 01:03:43;;;;;;;13.55;7.88;;;6.50;51.50;;;;;;4974165;28;20022;-68
2022/01/14 01:06:09;;;;;;;13.60;7.60;;;6.40;51.60;;;;;;4974251;28;20046;-69
2022/01/14 01:08:36;;;;;;;13.38;7.32;;;6.40;51.80;;;;;;4974494;28;20390;-69
2022/01/14 01:11:04;;;;;;;17.10;7.97;;;6.40;52.10;;;;;;4974134;28;20030;-67
2022/01/14 01:13:35;;;;;;;14.35;7.18;;;6.30;52.10;;;;;;4974015;28;20090;-67
2022/01/14 01:16:01;;;;;;;11.70;6.95;;;6.20;52.30;;;;;;4974087;28;20022;-68
2022/01/14 01:18:27;;;;;;;12.13;6.80;;;6.20;52.00;;;;;;4973893;28;20097;-68
2022/01/14 01:20:53;;;;;;;12.27;6.75;;;6.20;52.70;;;;;;4973934;28;20058;-67
2022/01/14 01:23:20;;;;;;;13.40;6.88;;;6.20;52.60;;;;;;4973738;28;20031;-68
2022/01/14 01:25:57;;;;;;;11.75;6.70;;;6.20;52.70;;;;;;4973842;28;20031;-67
2022/01/14 01:28:22;;;;;;;16.50;6.90;;;6.20;53.30;;;;;;4972549;28;20152;-66
2022/01/14 01:31:04;;;;;;;11.57;6.85;;;6.10;52.60;;;;;;4973687;28;20134;-67
2022/01/14 01:33:29;;;;;;;10.63;6.30;;;6.10;54.10;;;;;;4973532;28;20589;-69
2022/01/14 01:35:56;;;;;;;10.95;6.43;;;6.10;52.80;;;;;;4973692;28;20027;-67
2022/01/14 01:38:22;;;;;;;11.02;5.88;;;6.10;53.10;;;;;;4973668;28;20023;-67
2022/01/14 01:40:49;;;;;;;12.25;5.70;;;6.00;53.10;;;;;;4972420;28;20118;-68
2022/01/14 01:43:16;;;;;;;12.13;6.45;;;5.90;53.10;;;;;;4972409;28;20601;-67
2022/01/14 01:45:47;;;;;;;13.55;6.22;;;5.90;53.50;;;;;;4973540;28;20027;-67
2022/01/14 01:48:13;;;;;;;9.70;5.57;;;5.90;53.30;;;;;;4973647;28;20114;-66
2022/01/14 01:50:38;;;;;;;11.70;5.88;;;5.90;53.60;;;;;;4973472;28;20138;-68
2022/01/14 01:53:05;;;;;;;12.68;5.68;;;5.90;53.60;;;;;;4973557;28;20027;-67
2022/01/14 01:55:30;;;;;;;11.85;6.55;;;5.90;53.90;;;;;;4972324;28;20061;-67
2022/01/14 01:57:56;;;;;;;11.52;5.43;;;5.90;53.70;;;;;;4973612;28;20030;-69
2022/01/14 02:00:25;;;;;;;13.02;6.15;;;5.90;53.90;;;;;;4973594;28;20034;-68
2022/01/14 02:02:53;;;;;;;8.93;5.55;;;5.90;54.30;;;;;;4973574;28;20034;-68
2022/01/14 02:05:19;;;;;;;11.80;6.07;;;5.90;53.90;;;;;;4988267;28;20035;-67
2022/01/14 02:07:45;;;;;;;10.63;6.20;;;5.80;53.60;;;;;;4972000;28;20033;-67
2022/01/14 02:10:11;;;;;;;10.90;6.03;;;5.80;54.10;;;;;;4973486;28;20480;-68
2022/01/14 02:12:45;;;;;;;10.45;6.18;;;5.70;54.60;;;;;;4973437;28;20480;-68
2022/01/14 02:15:25;;;;;;;11.93;6.95;;;5.70;54.80;;;;;;4973626;28;20062;-69
2022/01/14 02:23:03;;;;;;;14.60;7.45;;;5.60;54.70;;;;;;4977395;28;20033;-69
2022/01/14 02:25:29;;;;;;;12.55;7.75;;;5.50;55.60;;;;;;4977083;28;20058;-68
2022/01/14 02:28:01;;;;;;;14.05;7.53;;;5.50;55.50;;;;;;4976957;28;20030;-69
2022/01/14 02:30:29;;;;;;;12.73;7.57;;;5.40;55.60;;;;;;4976799;28;20031;-67
2022/01/14 02:32:55;;;;;;;11.85;7.30;;;5.30;55.70;;;;;;4991818;28;20027;-68
2022/01/14 02:35:21;;;;;;;14.68;7.57;;;5.30;56.20;;;;;;4976860;28;20027;-66
2022/01/14 02:37:47;;;;;;;11.88;6.90;;;5.30;56.10;;;;;;4976680;28;20049;-69
2022/01/14 02:40:13;;;;;;;11.38;7.55;;;5.30;56.30;;;;;;4991720;28;20034;-69
2022/01/14 02:42:39;;;;;;;13.77;7.97;;;5.30;56.10;;;;;;4976887;28;20113;-70
2022/01/14 02:45:06;;;;;;;15.32;8.18;;;5.30;56.40;;;;;;4976751;28;20192;-72
2022/01/14 02:47:31;;;;;;;19.50;8.82;;;5.20;56.50;;;;;;4976637;28;20495;-70
2022/01/14 02:49:58;;;;;;;11.15;7.70;;;5.20;56.30;;;;;;4976503;28;20042;-70
2022/01/14 02:52:56;;;;;;;14.60;8.00;;;5.30;56.00;;;;;;4976593;28;20511;-70
2022/01/14 02:55:16;;;;;;;14.82;8.23;;;5.30;56.50;;;;;;4976319;28;20049;-70
2022/01/14 02:57:47;;;;;;;16.33;8.32;;;5.20;56.10;;;;;;4976339;28;20027;-71
2022/01/14 03:00:17;;;;;;;15.90;8.48;;;5.20;57.00;;;;;;4975319;28;20026;-70
2022/01/14 03:02:45;;;;;;;16.55;9.07;;;5.20;57.10;;;;;;4976374;28;20031;-69
2022/01/14 03:05:11;;;;;;;14.63;8.57;;;5.20;56.60;;;;;;4975152;28;20093;-71
2022/01/14 03:07:39;;;;;;;16.17;9.45;;;5.20;56.40;;;;;;4976189;28;20058;-67
2022/01/14 03:10:06;;;;;;;17.13;8.82;;;5.10;56.20;;;;;;4976236;28;20057;-68
2022/01/14 03:12:33;;;;;;;14.88;8.77;;;5.10;56.90;;;;;;4975115;28;20030;-68
2022/01/14 03:14:59;;;;;;;14.60;8.88;;;5.10;56.70;;;;;;4976227;28;20027;-70
2022/01/14 03:17:24;;;;;;;15.60;8.93;;;5.00;57.30;;;;;;4976100;28;20029;-69
2022/01/14 03:19:50;;;;;;;16.08;8.73;;;5.00;57.30;;;;;;4976265;28;20432;-70
2022/01/14 03:22:24;;;;;;;15.68;9.02;;;5.00;57.80;;;;;;4976269;28;20031;-69
2022/01/14 03:27:16;;;;;;;14.98;8.60;;;5.00;57.30;;;;;;4975402;28;20031;-67
2022/01/14 03:29:42;;;;;;;12.90;8.02;;;5.00;57.20;;;;;;4975254;28;20035;-71
2022/01/14 03:32:08;;;;;;;12.80;8.25;;;5.00;57.70;;;;;;4975987;28;20026;-71
2022/01/14 03:34:35;;;;;;;14.82;8.60;;;5.00;57.50;;;;;;4975841;28;20499;-70
2022/01/14 03:37:01;;;;;;;12.55;7.35;;;4.90;57.40;;;;;;4975902;28;20050;-69
2022/01/14 03:39:26;;;;;;;14.15;8.70;;;4.90;57.50;;;;;;4976296;28;20077;-69
2022/01/14 03:41:52;;;;;;;15.95;8.23;;;4.90;57.90;;;;;;4975741;28;20023;-67
2022/01/14 03:44:19;;;;;;;12.18;7.28;;;4.90;58.90;;;;;;4975663;28;20023;-72
2022/01/14 03:46:45;;;;;;;12.63;7.28;;;4.80;57.90;;;;;;4975614;28;20468;-70
2022/01/14 03:49:11;;;;;;;12.57;7.25;;;4.80;58.00;;;;;;4974108;28;20053;-69
2022/01/14 03:51:37;;;;;;;11.77;6.28;;;4.90;58.30;;;;;;4975453;28;20408;-70
2022/01/14 03:54:03;;;;;;;17.05;7.85;;;4.90;58.30;;;;;;4975230;28;20539;-70
2022/01/14 03:56:29;;;;;;;13.95;8.23;;;4.90;58.40;;;;;;4975328;28;20076;-68
2022/01/14 03:58:55;;;;;;;12.45;7.07;;;4.90;58.40;;;;;;4975240;28;20380;-71
2022/01/14 04:01:21;;;;;;;12.60;7.95;;;4.80;58.70;;;;;;4974018;28;20034;-70
2022/01/14 04:03:49;;;;;;;15.43;7.68;;;4.80;58.40;;;;;;4974311;28;20070;-70
2022/01/14 04:06:15;;;;;;;11.10;7.32;;;4.80;58.40;;;;;;4975505;28;20106;-72
2022/01/14 04:08:41;;;;;;;13.75;7.85;;;4.80;59.00;;;;;;4975346;28;20026;-71
2022/01/14 04:11:09;;;;;;;12.55;7.85;;;4.80;59.20;;;;;;4974248;28;20483;-72
2022/01/14 04:13:48;;;;;;;13.02;7.18;;;4.80;58.60;;;;;;4975402;28;20099;-70
2022/01/14 04:16:15;;;;;;;14.43;6.97;;;4.80;59.00;;;;;;4975655;28;20101;-70
2022/01/14 04:18:41;;;;;;;15.80;6.82;;;4.80;59.00;;;;;;4975668;28;20027;-68
2022/01/14 04:21:07;;;;;;;11.80;6.57;;;4.80;59.10;;;;;;4975040;28;20039;-69
2022/01/14 04:23:33;;;;;;;13.05;6.38;;;4.90;58.90;;;;;;4975151;28;20049;-66
2022/01/14 04:25:58;;;;;;;13.32;6.63;;;4.90;58.70;;;;;;4975306;28;20034;-66
2022/01/14 04:28:27;;;;;;;12.50;6.60;;;4.90;58.80;;;;;;4974751;28;20468;-69
2022/01/14 04:30:56;;;;;;;11.45;5.95;;;4.90;58.80;;;;;;4974702;28;20041;-65
2022/01/14 04:33:27;;;;;;;13.30;6.30;;;4.80;58.70;;;;;;4974649;28;20500;-66
2022/01/14 04:35:56;;;;;;;9.95;6.47;;;4.80;58.80;;;;;;4974826;28;20034;-66
2022/01/14 04:38:23;;;;;;;11.45;6.22;;;4.70;59.10;;;;;;4974843;28;20102;-66
2022/01/14 04:40:48;;;;;;;12.32;6.15;;;4.70;59.30;;;;;;4974516;28;20023;-66
2022/01/14 04:43:17;;;;;;;12.93;6.15;;;4.60;59.60;;;;;;4974649;28;20031;-66
2022/01/14 04:45:55;;;;;;;14.77;5.93;;;4.60;59.40;;;;;;4974664;28;20511;-65
2022/01/14 04:48:22;;;;;;;11.88;6.80;;;4.60;59.30;;;;;;4974625;28;20033;-65
2022/01/14 04:50:51;;;;;;;11.57;6.45;;;4.70;59.50;;;;;;4974226;28;20062;-66
2022/01/14 04:53:16;;;;;;;12.68;6.43;;;4.70;59.30;;;;;;4974632;28;20484;-65
2022/01/14 04:55:42;;;;;;;12.57;6.30;;;4.70;59.60;;;;;;4974602;28;20042;-66
2022/01/14 04:58:08;;;;;;;10.85;6.50;;;4.60;59.30;;;;;;4974568;28;20023;-68
2022/01/14 05:00:35;;;;;;;15.35;6.10;;;4.70;59.70;;;;;;4974657;28;20082;-68
2022/01/14 05:03:02;;;;;;;15.15;6.32;;;4.70;59.70;;;;;;4973085;28;20074;-70
2022/01/14 05:05:32;;;;;;;9.00;5.40;;;4.60;59.40;;;;;;4974502;28;20031;-70
2022/01/14 05:07:58;;;;;;;12.30;5.75;;;4.70;59.60;;;;;;4974253;28;20113;-66
2022/01/14 05:12:55;;;;;;;12.18;6.10;;;4.70;60.00;;;;;;4974220;28;20019;-66
2022/01/14 05:15:22;;;;;;;16.08;6.47;;;4.80;59.60;;;;;;4974244;28;20023;-66
2022/01/14 05:17:49;;;;;;;11.32;5.53;;;4.80;59.50;;;;;;4974034;28;20467;-67
2022/01/14 05:20:15;;;;;;;13.63;6.20;;;4.80;59.70;;;;;;4973849;28;20480;-66
2022/01/14 05:22:41;;;;;;;11.93;6.15;;;4.80;59.80;;;;;;4972866;28;20015;-66
2022/01/14 05:25:09;;;;;;;11.88;6.10;;;4.80;60.40;;;;;;4974085;28;20429;-68
2022/01/14 05:27:36;;;;;;;9.45;5.25;;;4.80;60.20;;;;;;4974221;28;20030;-66
2022/01/14 05:30:04;;;;;;;9.88;5.90;;;4.70;60.10;;;;;;4973842;28;20039;-69
2022/01/14 05:32:30;;;;;;;11.00;6.13;;;4.70;60.00;;;;;;4973688;28;20049;-67
2022/01/14 05:34:56;;;;;;;14.57;5.90;;;4.70;60.40;;;;;;4989092;28;20055;-67
2022/01/14 05:37:22;;;;;;;13.48;6.25;;;4.70;60.70;;;;;;4973839;28;20019;-68
2022/01/14 05:39:47;;;;;;;11.43;5.10;;;4.70;60.90;;;;;;4973713;28;20031;-67
2022/01/14 05:42:14;;;;;;;12.55;5.50;;;4.70;60.80;;;;;;4973959;28;20027;-69
2022/01/14 05:44:40;;;;;;;11.10;4.95;;;4.70;60.60;;;;;;4972511;28;20551;-69
2022/01/14 05:47:06;;;;;;;9.73;4.85;;;4.70;60.90;;;;;;4972507;28;20027;-68
2022/01/14 05:49:32;;;;;;;8.50;4.72;;;4.60;60.60;;;;;;4978529;28;20031;-66
2022/01/14 05:51:58;;;;;;;11.20;4.82;;;4.70;61.00;;;;;;4975625;28;20061;-67
2022/01/14 05:54:24;;;;;;;11.65;5.30;;;4.70;60.70;;;;;;4977665;28;20035;-68
2022/01/14 05:56:50;;;;;;;7.88;4.43;;;4.70;61.10;;;;;;4977501;28;20468;-67
2022/01/14 05:59:16;;;;;;;8.93;4.72;;;4.60;60.80;;;;;;4977392;28;20038;-66
2022/01/14 06:01:45;;;;;;;12.35;5.47;;;4.60;61.20;;;;;;4977506;28;20059;-67
2022/01/14 06:04:11;;;;;;;11.43;5.53;;;4.60;60.90;;;;;;4977214;28;20058;-67
2022/01/14 06:06:37;;;;;;;9.65;5.20;;;4.60;61.40;;;;;;4977508;28;20108;-66
2022/01/14 06:09:04;;;;;;;10.23;5.20;;;4.60;61.20;;;;;;4977179;28;20035;-67
2022/01/14 06:11:30;;;;;;;10.98;4.80;;;4.50;61.10;;;;;;4977143;28;20027;-68
2022/01/14 06:13:56;;;;;;;8.73;4.72;;;4.60;61.10;;;;;;4977140;28;20027;-66
2022/01/14 06:16:22;;;;;;;10.82;5.13;;;4.60;60.90;;;;;;4977197;28;20030;-66
2022/01/14 06:18:48;;;;;;;10.35;4.80;;;4.60;61.50;;;;;;4977241;28;20049;-69
2022/01/14 06:21:15;;;;;;;8.90;5.18;;;4.60;61.30;;;;;;4977312;28;20027;-69
2022/01/14 06:23:40;;;;;;;9.57;5.05;;;4.60;60.80;;;;;;4977182;28;20456;-68
2022/01/14 06:26:07;;;;;;;15.15;6.15;;;4.60;61.10;;;;;;4976979;28;20031;-67
2022/01/14 06:28:33;;;;;;;9.93;5.57;;;4.70;60.60;;;;;;4976992;28;20031;-69
2022/01/14 06:30:59;;;;;;;13.40;5.45;;;4.70;60.90;;;;;;4976750;28;20042;-70
2022/01/14 06:33:25;;;;;;;11.68;5.28;;;4.70;61.40;;;;;;4975404;28;20033;-67
2022/01/14 06:35:51;;;;;;;14.07;5.97;;;4.70;61.40;;;;;;4976662;28;20034;-68
2022/01/14 06:38:20;;;;;;;12.30;5.60;;;4.60;61.00;;;;;;4981613;28;20030;-68
2022/01/14 06:40:47;;;;;;;12.23;6.30;;;4.60;60.90;;;;;;4996094;28;20476;-67
2022/01/14 06:43:14;;;;;;;13.57;6.07;;;4.50;61.40;;;;;;4996110;28;20022;-67
2022/01/14 06:45:40;;;;;;;10.48;4.97;;;4.50;61.60;;;;;;4995914;28;20050;-68
2022/01/14 06:48:06;;;;;;;16.05;5.97;;;4.50;61.30;;;;;;4994786;28;20023;-70
2022/01/14 06:50:32;;;;;;;12.93;6.00;;;4.50;61.40;;;;;;4995944;28;20429;-69
2022/01/14 06:52:58;;;;;;;11.85;6.20;;;4.60;61.80;;;;;;4996126;28;20029;-68
2022/01/14 06:55:24;;;;;;;10.93;6.07;;;4.60;61.80;;;;;;4994597;28;20030;-69
2022/01/14 06:57:49;;;;;;;21.70;6.82;;;4.70;61.50;;;;;;4976367;28;20029;-66
2022/01/14 07:00:17;;;;;;;17.42;6.82;;;4.70;61.50;;;;;;4976397;28;20081;-70
2022/01/14 07:02:43;;;;;;;15.48;6.03;;;4.70;61.60;;;;;;4976159;28;20096;-69
2022/01/14 07:05:10;;;;;;;11.35;5.82;;;4.80;61.50;;;;;;4976460;28;20023;-70
2022/01/14 07:07:36;;;;;;;11.07;6.40;;;4.80;62.10;;;;;;4976260;28;20105;-67
2022/01/14 07:10:04;;;;;;;17.08;6.90;;;4.90;61.10;;;;;;4976170;28;20361;-68
2022/01/14 07:12:40;;;;;;;18.30;6.70;;;5.00;61.60;;;;;;4974944;28;20480;-70
2022/01/14 07:15:12;;;;;;;16.02;7.60;;;5.00;61.30;;;;;;4976148;28;20038;-72
2022/01/14 07:17:38;;;;;;;15.55;6.88;;;5.00;61.30;;;;;;4976088;28;20027;-72
2022/01/14 07:20:08;;;;;;;17.30;7.88;;;5.10;61.00;;;;;;4976409;28;20027;-74
2022/01/14 07:22:34;;;;;;;15.75;7.35;;;5.20;60.90;;;;;;4975202;28;20106;-76
2022/01/14 07:25:01;;;;;;;18.38;7.82;;;5.20;60.80;;;;;;4976569;28;20031;-71
2022/01/14 07:27:27;;;;;;;20.05;7.53;;;5.20;60.20;;;;;;4981139;28;20049;-69
2022/01/14 07:29:54;;;;;;;18.98;7.53;;;5.20;60.30;;;;;;4979142;28;20031;-70
2022/01/14 07:32:19;;;;;;;17.45;7.18;;;5.30;60.40;;;;;;4988535;28;20036;-71
2022/01/14 07:34:45;;;;;;;17.67;7.68;;;5.40;60.30;;;;;;4994136;28;20032;-68
2022/01/14 07:37:11;;;;;;;15.23;7.43;;;5.50;60.20;;;;;;4994975;28;20042;-70
2022/01/14 07:39:37;;;;;;;17.30;7.05;;;5.60;60.10;;;;;;4994588;28;20427;-72
2022/01/14 07:42:04;;;;;;;15.48;7.63;;;5.70;59.70;;;;;;4994826;28;20037;-71
2022/01/14 07:44:29;;;;;;;15.15;7.28;;;5.70;59.50;;;;;;4995315;28;20030;-72
2022/01/14 07:46:55;;;;;;;13.68;6.68;;;5.80;59.30;;;;;;4994993;28;20038;-70
2022/01/14 07:49:21;;;;;;;15.57;6.78;;;5.90;59.30;;;;;;4994829;28;20045;-72
2022/01/14 07:51:47;;;;;;;15.32;7.03;;;5.90;58.50;;;;;;4993644;28;20515;-72
2022/01/14 07:54:13;;;;;;;19.90;7.95;;;5.90;58.10;;;;;;4994936;28;20114;-71
2022/01/14 07:56:45;;;;;;;24.52;7.13;;;5.90;58.00;;;;;;4994460;28;20041;-71
2022/01/14 07:59:12;;;;;;;11.27;6.80;;;6.00;58.00;;;;;;4994659;28;20030;-71
2022/01/14 08:01:38;;;;;;;15.68;7.80;;;6.00;58.00;;;;;;4994852;28;20101;-72
2022/01/14 08:04:05;;;;;;;15.40;6.70;;;6.10;57.90;;;;;;4994994;28;20050;-74
2022/01/14 08:06:33;;;;;;;17.40;8.23;;;6.10;57.70;;;;;;4994966;28;20101;-74
2022/01/14 08:08:59;;;;;;;19.92;7.20;;;6.10;57.70;;;;;;4994859;28;20495;-74
2022/01/14 08:11:25;;;;;;;12.38;6.50;;;6.10;57.60;;;;;;4995561;28;20034;-73
2022/01/14 08:13:50;;;;;;;13.45;5.65;;;6.10;57.00;;;;;;4997130;28;20052;-71
2022/01/14 08:16:16;;;;;;;15.10;6.53;;;6.10;57.10;;;;;;4993065;28;20042;-74
2022/01/14 08:18:43;;;;;;;12.20;6.85;;;6.10;57.20;;;;;;4986406;28;20022;-71
2022/01/14 08:21:09;;;;;;;15.90;6.28;;;6.10;57.10;;;;;;4977677;28;20110;-71
2022/01/14 08:23:35;;;;;;;19.08;8.27;;;6.10;56.80;;;;;;4975344;28;20102;-70
2022/01/14 08:26:01;;;;;;;15.85;7.20;;;6.10;56.80;;;;;;4975429;28;20019;-75
2022/01/14 08:28:27;;;;;;;18.10;6.90;;;6.10;56.80;;;;;;4975485;28;20058;-74
2022/01/14 08:30:54;;;;;;;12.40;6.25;;;6.20;56.90;;;;;;4975504;28;20097;-71
2022/01/14 08:33:20;;;;;;;14.60;5.97;;;6.20;56.70;;;;;;4975307;28;20022;-76
2022/01/14 08:35:47;;;;;;;11.85;5.97;;;6.10;56.50;;;;;;4974880;28;20143;-72
2022/01/14 08:38:14;;;;;;;19.40;6.90;;;6.20;56.80;;;;;;4974515;28;20019;-72
2022/01/14 08:40:40;;;;;;;12.50;5.85;;;6.10;56.10;;;;;;4983554;28;20030;-69
2022/01/14 08:43:06;;;;;;;15.60;6.13;;;6.10;57.00;;;;;;4994411;28;20088;-72
2022/01/14 08:45:32;;;;;;;12.82;5.40;;;6.10;56.30;;;;;;4994427;28;20037;-72
2022/01/14 08:47:59;;;;;;;16.88;5.82;;;6.10;55.90;;;;;;4994288;28;20105;-76
2022/01/14 08:50:30;;;;;;;12.05;6.20;;;6.20;56.10;;;;;;5025466;28;20058;-75
2022/01/14 08:52:59;;;;;;;17.38;6.25;;;6.20;55.80;;;;;;4993343;28;20097;-80
2022/01/14 08:55:27;;;;;;;12.55;6.07;;;6.30;55.50;;;;;;4993253;28;20388;-74
2022/01/14 08:57:53;;;;;;;15.00;5.88;;;6.40;55.60;;;;;;4993582;28;20030;-72
2022/01/14 09:00:21;;;;;;;9.60;5.32;;;6.50;55.30;;;;;;5025663;28;20129;-72
2022/01/14 09:02:51;;;;;;;15.52;5.57;;;6.50;54.70;;;;;;5025263;28;20038;-74
2022/01/14 09:05:17;;;;;;;12.52;4.97;;;6.70;54.70;;;;;;4993767;28;20161;-71
2022/01/14 09:07:43;;;;;;;11.65;5.55;;;6.70;54.10;;;;;;4994177;28;20029;-72
2022/01/14 09:10:10;;;;;;;15.48;5.85;;;6.80;54.80;;;;;;4993980;28;20113;-71
2022/01/14 09:12:36;;;;;;;14.05;6.15;;;6.90;53.90;;;;;;4993814;28;20073;-72
2022/01/14 09:15:03;;;;;;;10.77;5.57;;;7.00;53.20;;;;;;4994004;28;20030;-73
2022/01/14 09:17:29;;;;;;;10.15;6.22;;;7.00;53.40;;;;;;4993670;28;20042;-72
2022/01/14 09:19:56;;;;;;;15.85;5.43;;;7.10;53.30;;;;;;4994472;28;20057;-74
2022/01/14 09:22:22;;;;;;;12.55;6.35;;;7.20;52.90;;;;;;5009183;28;20449;-74
2022/01/14 09:24:49;;;;;;;9.65;4.43;;;7.20;52.30;;;;;;4993962;28;20022;-71
2022/01/14 09:27:15;;;;;;;12.63;5.38;;;7.30;51.90;;;;;;4993722;28;20047;-73
2022/01/14 09:29:42;;;;;;;12.77;5.32;;;7.30;51.50;;;;;;4993885;28;20038;-71
2022/01/14 09:32:09;;;;;;;11.73;5.55;;;7.40;51.50;;;;;;4993729;28;20098;-74
2022/01/14 09:34:35;;;;;;;12.15;5.35;;;7.50;51.20;;;;;;4993485;28;20026;-73
2022/01/14 09:37:01;;;;;;;12.05;4.97;;;7.60;51.00;;;;;;4993847;28;20030;-74
2022/01/14 09:39:27;;;;;;;10.85;4.90;;;7.70;51.10;;;;;;4993893;28;20361;-74
2022/01/14 09:41:53;;;;;;;11.30;4.93;;;7.80;51.20;;;;;;4993962;28;20026;-73
2022/01/14 09:44:20;;;;;;;8.50;4.57;;;7.80;51.00;;;;;;4993868;28;20034;-74
2022/01/14 09:46:50;;;;;;;11.30;4.90;;;8.00;50.50;;;;;;4993873;28;20065;-74
2022/01/14 09:49:16;;;;;;;11.35;4.97;;;8.00;49.90;;;;;;4993855;28;20109;-74
2022/01/14 09:51:43;;;;;;;11.15;4.53;;;8.10;50.30;;;;;;4993050;28;20050;-74
2022/01/14 09:54:10;;;;;;;9.57;4.90;;;8.20;50.30;;;;;;4993236;28;20022;-74
2022/01/14 09:56:37;;;;;;;14.65;5.63;;;8.30;49.80;;;;;;4993380;28;20029;-72
2022/01/14 09:59:04;;;;;;;9.43;5.00;;;8.40;49.70;;;;;;4993282;28;20097;-73
2022/01/14 10:01:41;;;;;;;12.95;5.25;;;8.40;49.50;;;;;;4991867;28;20109;-71
2022/01/14 10:04:12;;;;;;;8.75;4.90;;;8.50;49.10;;;;;;4993487;28;20042;-72
2022/01/14 10:06:43;;;;;;;12.50;5.18;;;8.60;49.10;;;;;;4993316;28;20040;-71
2022/01/14 10:09:12;;;;;;;7.63;4.97;;;8.60;49.10;;;;;;4993336;28;20034;-71
2022/01/14 10:11:42;;;;;;;11.07;5.47;;;8.60;48.80;;;;;;4993644;28;20085;-72
2022/01/14 10:14:15;;;;;;;11.63;5.30;;;8.70;48.80;;;;;;4993113;28;20026;-73
2022/01/14 10:16:41;;;;;;;12.57;4.95;;;8.70;48.60;;;;;;4993617;28;20108;-72
2022/01/14 10:19:28;;;;;;;12.25;5.55;;;8.80;48.60;;;;;;4993007;28;20031;-75
2022/01/14 10:21:54;;;;;;;15.68;5.13;;;8.90;48.70;;;;;;4992504;28;20087;-72
2022/01/14 10:24:24;;;;;;;14.27;5.68;;;9.00;48.50;;;;;;4992612;28;20105;-73
2022/01/14 10:26:51;;;;;;;12.35;6.03;;;9.10;48.00;;;;;;4991599;28;20483;-73
2022/01/14 10:29:33;;;;;;;10.85;4.82;;;9.20;47.40;;;;;;4992750;28;20402;-71
2022/01/14 10:32:02;;;;;;;10.02;4.60;;;9.30;46.80;;;;;;4992908;28;20360;-71
2022/01/14 10:34:29;;;;;;;8.40;4.85;;;9.40;45.70;;;;;;4993444;28;20054;-71
2022/01/14 10:37:10;;;;;;;11.50;4.80;;;9.50;45.60;;;;;;4993241;28;20018;-72
2022/01/14 10:39:44;;;;;;;7.93;4.25;;;9.60;46.00;;;;;;4994847;28;20352;-72
2022/01/14 10:42:36;;;;;;;9.82;4.65;;;9.60;45.20;;;;;;4995567;28;20053;-78
2022/01/14 10:45:22;;;;;;;10.88;5.03;;;9.80;45.20;;;;;;4996203;28;20027;-72
2022/01/14 10:47:53;;;;;;;14.35;5.20;;;9.90;46.30;;;;;;4996018;28;20023;-77
2022/01/14 10:50:26;;;;;;;14.68;5.18;;;10.00;45.20;;;;;;4996667;28;20113;-77
2022/01/14 10:52:52;;;;;;;10.40;5.03;;;10.10;43.80;;;;;;4996764;28;20031;-77
2022/01/14 10:55:30;;;;;;;8.85;4.63;;;10.20;44.10;;;;;;4995248;28;20037;-73
2022/01/14 10:57:57;;;;;;;10.23;4.40;;;10.30;42.70;;;;;;4994724;28;20448;-72
2022/01/14 11:00:24;;;;;;;12.20;5.05;;;10.40;42.60;;;;;;4992515;28;20502;-75
2022/01/14 11:02:52;;;;;;;10.73;4.70;;;10.50;43.00;;;;;;4995583;28;20485;-79
2022/01/14 11:05:20;;;;;;;7.70;3.95;;;10.60;42.10;;;;;;4996255;28;20397;-74
2022/01/14 11:07:47;;;;;;;8.93;4.57;;;10.60;40.80;;;;;;4996003;28;20088;-75
2022/01/14 11:10:28;;;;;;;7.78;4.25;;;10.70;41.00;;;;;;4995276;28;20042;-74
2022/01/14 11:12:56;;;;;;;9.45;4.95;;;10.80;41.20;;;;;;4996452;28;20030;-83
2022/01/14 11:15:24;;;;;;;14.20;5.13;;;10.90;40.80;;;;;;4995610;28;20026;-74
2022/01/14 11:17:52;;;;;;;12.50;5.43;;;10.90;40.60;;;;;;4996545;28;20030;-73
2022/01/14 11:23:14;;;;;;;10.35;5.20;;;11.00;40.70;;;;;;4995939;28;20395;-71
2022/01/14 11:23:15;;;;;;;13.10;4.68;;;11.00;40.00;;;;;;4994793;28;20475;-72
2022/01/14 11:25:59;;;;;;;9.60;4.25;;;11.10;41.30;;;;;;4995664;28;20026;-72
2022/01/14 11:28:29;;;;;;;13.85;4.68;;;11.20;41.10;;;;;;4994108;28;20033;-71
2022/01/14 11:30:56;;;;;;;20.80;5.90;;;11.30;39.70;;;;;;4995539;28;20038;-73
2022/01/14 11:33:41;;;;;;;16.98;5.60;;;11.40;39.70;;;;;;4995248;28;20105;-71
2022/01/14 11:36:07;;;;;;;12.63;5.00;;;11.40;39.60;;;;;;4995542;28;20199;-72
2022/01/14 11:38:44;;;;;;;9.35;4.50;;;11.50;39.40;;;;;;5010320;28;20065;-71
2022/01/14 11:41:19;;;;;;;9.93;4.75;;;11.60;39.80;;;;;;4993802;28;20053;-73
2022/01/14 11:43:55;;;;;;;14.15;6.00;;;11.70;39.90;;;;;;4993685;28;20383;-73
2022/01/14 11:46:30;;;;;;;8.00;3.67;;;11.70;39.80;;;;;;4995930;28;20030;-73
2022/01/14 11:48:56;;;;;;;12.57;3.83;;;11.90;39.70;;;;;;4994260;28;20014;-71
2022/01/14 11:51:22;;;;;;;7.53;3.95;;;11.90;38.90;;;;;;5020251;23;20384;-71
2022/01/14 11:53:53;;;;;;;8.57;4.55;;;12.00;39.40;;;;;;5014758;28;20487;-72
2022/01/14 11:56:34;;;;;;;9.65;4.20;;;12.00;38.90;;;;;;5013366;28;20018;-73
2022/01/14 11:59:18;;;;;;;15.85;6.38;;;12.00;39.40;;;;;;5001524;28;20488;-72
2022/01/14 12:01:45;;;;;;;9.32;4.85;;;12.20;39.40;;;;;;4995440;28;20026;-72
2022/01/14 12:04:11;;;;;;;10.15;4.43;;;12.20;39.20;;;;;;4995387;28;20119;-74
2022/01/14 12:06:49;;;;;;;11.02;4.32;;;12.30;38.50;;;;;;4995275;28;20098;-73
2022/01/14 12:09:17;;;;;;;9.88;4.22;;;12.30;38.60;;;;;;4995204;28;20314;-72
2022/01/14 12:11:43;;;;;;;9.05;4.80;;;12.40;39.00;;;;;;4994919;28;20084;-73
2022/01/14 12:14:11;;;;;;;15.57;5.95;;;12.50;39.10;;;;;;4994687;28;20097;-73
2022/01/14 12:17:00;;;;;;;6.63;3.63;;;12.60;39.20;;;;;;4994972;28;20472;-73
2022/01/14 12:19:28;;;;;;;9.73;4.68;;;12.60;38.40;;;;;;4993682;28;20066;-73
2022/01/14 12:21:55;;;;;;;8.48;3.65;;;12.50;38.50;;;;;;4994708;28;20075;-73
2022/01/14 12:24:21;;;;;;;10.32;4.30;;;12.60;38.80;;;;;;4994609;28;20365;-73
2022/01/14 12:27:08;;;;;;;8.05;4.57;;;12.60;37.90;;;;;;4994690;28;20148;-72
2022/01/14 12:29:51;;;;;;;8.98;4.72;;;12.80;36.90;;;;;;4995983;28;20038;-72
2022/01/14 12:32:20;;;;;;;10.00;4.40;;;12.80;37.80;;;;;;4994096;28;20027;-73
2022/01/14 12:34:55;;;;;;;10.48;5.03;;;12.90;38.20;;;;;;4994003;28;20034;-72
2022/01/14 12:37:44;;;;;;;9.55;4.28;;;12.90;37.20;;;;;;4993932;28;20026;-72
2022/01/14 12:40:16;;;;;;;8.65;4.50;;;13.00;37.10;;;;;;4994197;28;20108;-70
2022/01/14 12:43:04;;;;;;;9.67;4.33;;;13.00;36.50;;;;;;4995268;28;20507;-74
2022/01/14 12:45:36;;;;;;;9.90;3.90;;;13.10;36.80;;;;;;5008557;28;20046;-72
2022/01/14 12:48:13;;;;;;;9.88;3.85;;;13.10;37.30;;;;;;4994093;28;20035;-73
2022/01/14 12:50:39;;;;;;;8.55;3.80;;;13.10;35.80;;;;;;4991945;28;20067;-71
2022/01/14 12:53:04;;;;;;;7.60;4.20;;;13.10;35.80;;;;;;4999527;28;20022;-71
2022/01/14 12:55:36;;;;;;;9.32;3.60;;;13.20;35.80;;;;;;4999953;28;20502;-74
2022/01/14 12:58:03;;;;;;;10.50;3.75;;;13.20;35.90;;;;;;5001861;28;20471;-73
2022/01/14 13:00:29;;;;;;;14.60;4.25;;;13.30;35.60;;;;;;4999311;28;20495;-71
2022/01/14 13:02:55;;;;;;;10.57;4.65;;;13.30;35.90;;;;;;4996997;28;20027;-69
2022/01/14 13:05:21;;;;;;;13.23;5.93;;;13.30;36.40;;;;;;5000974;28;20061;-72
2022/01/14 13:07:48;;;;;;;11.48;5.22;;;13.40;36.30;;;;;;4993204;28;20096;-71
2022/01/14 13:10:16;;;;;;;10.98;4.70;;;13.40;36.20;;;;;;4993557;28;20058;-73
2022/01/14 13:12:44;;;;;;;7.00;3.88;;;13.50;36.10;;;;;;4995630;28;20030;-72